CheckWX is a tool to help pilots better visualize weather data.  It is not intended as a substitute for an official pre-flight weather briefing.

06:59:06 UTC

KCOS TAF
City of Colorado Springs Municipal Airport
Colorado Springs, Colorado, USA
KCOS 190538Z 1906/2006 36006KT P6SM SCT120 BKN200 FM191200 VRB04KT P6SM FEW120 SCT200 FM192000 30011KT P6SM SCT090 SCT200 FM192300 30011KT P6SM BKN090 FM200300 28008KT P6SM SCT090 SCT200

Jun-19@
06:00 UTC

Jun-19 @ 06:00 UTC

Jun-19@
12:00 UTC

Jun-19 @ 12:00 UTC

KCOS 190538Z 1906/2006 36006KT P6SM SCT120 BKN200
Wind
  • 360° at 6 KTS
Cloud Levels
  • Scattered at 12,000' AGL
  • Broken at 20,000' AGL

Jun-19@
12:00 UTC

Jun-19 @ 12:00 UTC

Jun-19@
20:00 UTC

Jun-19 @ 20:00 UTC

FM191200 VRB04KT P6SM FEW120 SCT200

From

From Standard forecast or significant change

Wind
  • Variable at 4 KTS
Cloud Levels
  • Few at 12,000' AGL
  • Scattered at 20,000' AGL

Jun-19@
20:00 UTC

Jun-19 @ 20:00 UTC

Jun-19@
23:00 UTC

Jun-19 @ 23:00 UTC

FM192000 30011KT P6SM SCT090 SCT200

From

From Standard forecast or significant change

Wind
  • 300° at 11 KTS
Cloud Levels
  • Scattered at 9,000' AGL
  • Scattered at 20,000' AGL

Jun-19@
23:00 UTC

Jun-19 @ 23:00 UTC

Jun-20@
03:00 UTC

Jun-20 @ 03:00 UTC

FM192300 30011KT P6SM BKN090

From

From Standard forecast or significant change

Wind
  • 300° at 11 KTS
Cloud Levels
  • Broken at 9,000' AGL

Jun-20@
03:00 UTC

Jun-20 @ 03:00 UTC

Jun-20@
06:00 UTC

Jun-20 @ 06:00 UTC

FM200300 28008KT P6SM SCT090 SCT200

From

From Standard forecast or significant change

Wind
  • 280° at 8 KTS
Cloud Levels
  • Scattered at 9,000' AGL
  • Scattered at 20,000' AGL